Flight Track Log - Related Links

Times and Time Zones

All times are in EDT time to prevent confusion due to time zone crossing. See the ASQ577T flight status page for this flight to view local times or setup timezone preferences in your user account.

Time Position Orientation Groundspeed Altitude Reporting Facility
EDT Latitude Longitude Course Direction KTS MPH feet Rate Location/Type
Mon 07:58:02 PM 41.4153 -81.8431 25° Northeast 171 197 1,500  Level Cleveland Center
Mon 07:59:03 PM 41.4678 -81.8108 25° Northeast 226 260 3,300 2,182 Climbing Cleveland Center
Mon 08:00:03 PM 41.5267 -81.7592 33° Northeast 251 289 5,900 2,800 Climbing Cleveland Center
Mon 08:01:03 PM 41.5897 -81.6936 38° Northeast 269 310 8,900 2,850 Climbing Cleveland Center
Mon 08:02:03 PM 41.6508 -81.6253 40° Northeast 282 325 11,600 2,450 Climbing Cleveland Center
Mon 08:03:03 PM 41.7203 -81.5514 38° Northeast 301 346 13,800 2,150 Climbing Cleveland Center
Mon 08:04:03 PM 41.7586 -81.4544 62° Northeast 306 352 15,900 2,050 Climbing Cleveland Center
Mon 08:05:03 PM 41.7803 -81.3211 78° East 332 382 17,900 1,950 Climbing Cleveland Center
Mon 08:06:03 PM 41.8019 -81.1847 78° East 360 414 19,800 1,800 Climbing Cleveland Center
Mon 08:07:03 PM 41.8236 -81.0511 78° East 372 428 21,500 1,350 Climbing Cleveland Center
Mon 08:08:03 PM 41.8492 -80.9064 77° East 385 443 22,500 1,250 Climbing Cleveland Center
Mon 08:09:03 PM 41.8722 -80.7506 79° East 410 472 24,000 1,750 Climbing Cleveland Center
Mon 08:10:03 PM 41.8975 -80.5858 78° East 415 478 26,000 1,550 Climbing Cleveland Center
Mon 08:11:03 PM 41.9225 -80.4325 78° East 409 471 27,100 1,100 Climbing Cleveland Center
Mon 08:12:03 PM 41.9492 -80.2706 77° East 428 493 28,200 1,250 Climbing Cleveland Center
Mon 08:13:03 PM 41.9714 -80.1056 80° East 440 506 29,600 1,350 Climbing Cleveland Center
Mon 08:14:03 PM 41.9958 -79.9631 77° East 440 506 30,900 700 Climbing Cleveland Center
Mon 08:15:03 PM 42.0219 -79.7922 78° East 441 507 31,000 50 Climbing Cleveland Center
Mon 08:16:03 PM 42.0478 -79.6156 79° East 461 531 31,000  Level Cleveland Center
Mon 08:17:03 PM 42.0750 -79.4306 79° East 482 555 31,000  Level Cleveland Center
Mon 08:18:03 PM 42.1003 -79.2456 80° East 493 567 31,000  Level Cleveland Center
Mon 08:19:03 PM 42.1272 -79.0603 79° East 493 567 31,000  Level Cleveland Center
Mon 08:20:03 PM 42.1517 -78.8775 80° East 498 573 31,000  Level Cleveland Center
Mon 08:21:03 PM 42.1800 -78.6889 78° East 498 573 31,000  Level Cleveland Center
Mon 08:22:03 PM 42.2097 -78.4892 79° East 498 573 31,000  Level Cleveland Center
Mon 08:23:03 PM 42.2333 -78.3033 80° East 498 573 31,000  Level Cleveland Center
Mon 08:24:03 PM 42.2589 -78.1200 79° East 498 573 31,000  Level Cleveland Center
Mon 08:25:03 PM 42.2839 -77.9336 80° East 503 579 31,000 -200 Level Cleveland Center
Mon 08:26:03 PM 42.3086 -77.7500 80° East 503 579 30,600 -740 Descending Cleveland Center
Mon 08:27:37 PM 42.3439 -77.4525 81° East 522 601 29,100 -623 Descending Boston Center
Mon 08:28:37 PM 42.3686 -77.2689 80° East 515 593 29,000 -50 Descending Boston Center
Mon 08:29:37 PM 42.3908 -77.0822 81° East 508 585 29,000  Level Boston Center
Mon 08:30:37 PM 42.4128 -76.8981 81° East 497 572 29,000  Level Boston Center
Mon 08:31:37 PM 42.4367 -76.7167 80° East 497 572 29,000  Level Boston Center
Mon 08:32:37 PM 42.4581 -76.5325 81° East 497 572 29,000  Level Boston Center
Mon 08:33:37 PM 42.4792 -76.3450 81° East 497 572 29,000  Level Boston Center
Mon 08:34:37 PM 42.4992 -76.1831 80° East 497 572 29,000  Level Boston Center
Mon 08:35:37 PM 42.5217 -76.0011 80° East 497 572 29,000 -100 Level Boston Center
Mon 08:36:37 PM 42.5400 -75.8161 82° East 497 572 28,800 -1,050 Descending Boston Center
Mon 08:37:37 PM 42.5619 -75.6342 81° East 497 572 26,900 -2,100 Descending Boston Center
Mon 08:38:37 PM 42.5811 -75.4603 81° East 491 565 24,600 -2,350 Descending Boston Center
Mon 08:39:37 PM 42.5981 -75.2861 82° East 470 541 22,200 -2,400 Descending Boston Center
Mon 08:40:37 PM 42.6167 -75.1261 81° East 446 513 19,800 -2,478 Descending Boston Center
Mon 08:41:09 PM 42.6272 -75.0250 82° East 429 494 18,400 -2,000 Descending Boston Center
Mon 08:41:37 PM 42.6328 -74.9717 82° East 430 495 17,800 -2,219 Descending Boston Center
Mon 08:42:22 PM 42.6458 -74.8422 82° East 400 460 15,700 -2,400 Descending Boston Center
Mon 08:42:37 PM 42.6483 -74.8225 80° East 406 467 15,400 -2,500 Descending Boston Center
Mon 08:43:22 PM 42.6614 -74.6961 82° East 392 451 13,200 -2,600 Descending Boston Center
Mon 08:43:37 PM 42.6619 -74.6764 88° East 399 459 12,800 -1,701 Descending Boston Center
Mon 08:44:29 PM 42.6769 -74.5469 81° East 373 429 11,300 -1,434 Descending Boston Center
Mon 08:45:30 PM 42.6606 -74.4136 99° East 307 353 10,100 -1,475 Descending Boston Center
Mon 08:46:31 PM 42.6414 -74.3058 104° East 288 331 8,300 -1,722 Descending Boston Center
Mon 08:47:25 PM 42.6242 -74.2064 103° East 287 330 6,800 -1,617 Descending Boston Center
Mon 08:48:26 PM 42.6069 -74.1100 104° East 271 312 5,200 -1,574 Descending Boston Center
Mon 08:49:27 PM 42.6083 -74.0142 89° East 257 296 3,600 -779 Descending Boston Center
Mon 08:50:37 PM 42.6219 -73.9269 78° East 235 270 3,500 -694 Descending Boston Center
Mon 08:51:28 PM 42.6314 -73.8539 80° East 200 230 2,200 -911 Descending Boston Center
Mon 08:52:29 PM 42.6589 -73.8036 53° Northeast 149 171 1,800 -496 Descending Boston Center
Mon 08:53:29 PM 42.6944 -73.8044 359° North 117 135 1,200 -645 Descending Boston Center
Mon 08:54:30 PM 42.7319 -73.8081 356° North 129 148 500 -689 Descending Boston Center
Mon 08:57:00 PM 42.7333 -73.8000 57° Northeast  Level FlightAware Approximate

Login

Don't have an account? Register now (free) for customized features, flight alerts, and more!